createdAt,value
2022-12-20T00:00:57.940Z,31.16
2022-12-20T00:02:03.994Z,31.07
2022-12-20T00:03:07.466Z,31.31
2022-12-20T00:04:15.702Z,32.65
2022-12-20T00:05:19.942Z,33.14
2022-12-20T00:06:27.614Z,34.47
2022-12-20T00:07:31.101Z,33.13
2022-12-20T00:08:38.333Z,34.44
2022-12-20T00:09:41.764Z,37.02
2022-12-20T00:10:51.207Z,35.93
2022-12-20T00:11:54.769Z,33.53
2022-12-20T00:13:00.807Z,31.73
2022-12-20T00:14:04.266Z,34.55
2022-12-20T00:15:11.391Z,32.37
2022-12-20T00:16:19.454Z,31.48
2022-12-20T00:17:25.795Z,33.41
2022-12-20T00:18:29.240Z,31.54
2022-12-20T00:19:35.233Z,32.41
2022-12-20T00:20:38.748Z,35.05
2022-12-20T00:21:45.503Z,34.10
2022-12-20T00:22:49.597Z,37.37
2022-12-20T00:24:01.573Z,32.10
2022-12-20T00:25:05.989Z,31.99
2022-12-20T00:26:17.559Z,34.81
2022-12-20T00:27:22.383Z,31.88
2022-12-20T00:28:28.491Z,33.22
2022-12-20T00:29:35.403Z,34.65
2022-12-20T00:30:38.792Z,30.38
2022-12-20T00:31:44.996Z,30.92
2022-12-20T00:32:49.317Z,30.48
2022-12-20T00:33:58.742Z,31.94
2022-12-20T00:35:02.000Z,31.25
2022-12-20T00:36:09.790Z,29.80
2022-12-20T00:37:13.153Z,30.04
2022-12-20T00:38:20.197Z,30.08
2022-12-20T00:39:23.380Z,30.49
2022-12-20T00:40:29.384Z,29.45
2022-12-20T00:41:36.450Z,28.26
2022-12-20T00:42:42.390Z,29.61
2022-12-20T00:43:47.556Z,30.59
2022-12-20T00:44:53.534Z,30.15
2022-12-20T00:45:57.332Z,31.42
2022-12-20T00:47:03.365Z,28.22
2022-12-20T00:48:07.283Z,28.83
2022-12-20T00:49:14.448Z,28.44
2022-12-20T00:50:18.051Z,28.21
2022-12-20T00:51:27.679Z,30.06
2022-12-20T00:52:31.178Z,28.63
2022-12-20T00:53:38.038Z,27.61
2022-12-20T00:54:42.456Z,27.51
2022-12-20T00:55:50.301Z,29.60
2022-12-20T00:56:58.757Z,29.36
2022-12-20T00:58:02.003Z,29.64
2022-12-20T00:59:07.851Z,31.87
2022-12-20T01:00:13.498Z,29.71
2022-12-20T01:01:24.226Z,33.01
2022-12-20T01:02:27.900Z,31.60
2022-12-20T01:03:34.117Z,31.23
2022-12-20T01:04:38.631Z,30.82
2022-12-20T01:05:54.770Z,32.00
2022-12-20T01:06:58.611Z,32.56
2022-12-20T01:08:04.950Z,31.56
2022-12-20T01:09:08.291Z,29.64
2022-12-20T01:10:15.221Z,29.35
2022-12-20T01:11:23.097Z,28.39
2022-12-20T01:12:31.540Z,32.04
2022-12-20T01:13:39.045Z,31.36
2022-12-20T01:14:45.369Z,29.65
2022-12-20T01:15:49.986Z,28.35
2022-12-20T01:16:57.315Z,29.14
2022-12-20T01:18:01.074Z,29.24
2022-12-20T01:19:08.081Z,29.38
2022-12-20T01:20:12.727Z,27.45
2022-12-20T01:21:22.042Z,27.07
2022-12-20T01:22:26.239Z,27.49
2022-12-20T01:23:32.746Z,27.31
2022-12-20T01:24:38.634Z,28.45
2022-12-20T01:25:41.902Z,27.52
2022-12-20T01:26:49.325Z,29.72
2022-12-20T01:27:57.952Z,28.93
2022-12-20T01:29:04.321Z,27.86
2022-12-20T01:30:10.468Z,27.15
2022-12-20T01:31:20.408Z,27.12
2022-12-20T01:32:23.788Z,27.32
2022-12-20T01:33:30.801Z,27.93
2022-12-20T01:34:34.235Z,28.20
2022-12-20T01:35:40.166Z,29.38
2022-12-20T01:36:43.519Z,28.60
2022-12-20T01:37:49.614Z,28.85
2022-12-20T01:38:58.479Z,29.45
2022-12-20T01:40:04.445Z,29.60
2022-12-20T01:41:08.621Z,29.71
2022-12-20T01:42:18.020Z,29.88
2022-12-20T01:43:25.714Z,30.86
2022-12-20T01:45:10.850Z,30.21
2022-12-20T01:46:14.349Z,31.37
2022-12-20T01:47:21.545Z,30.75
2022-12-20T01:48:27.739Z,29.83
2022-12-20T01:49:41.630Z,29.57
2022-12-20T01:50:45.528Z,29.72
2022-12-20T01:51:59.441Z,31.40
2022-12-20T01:53:06.051Z,30.38
2022-12-20T01:54:22.208Z,29.31
2022-12-20T01:55:30.746Z,29.45
2022-12-20T01:56:39.320Z,30.80
2022-12-20T01:57:52.061Z,30.75
2022-12-20T01:59:03.851Z,29.34
2022-12-20T02:00:10.099Z,29.57
2022-12-20T02:01:23.453Z,28.72
2022-12-20T02:02:28.189Z,30.11
2022-12-20T02:03:35.970Z,28.14
2022-12-20T02:04:39.818Z,30.77
2022-12-20T02:05:49.788Z,32.73
2022-12-20T02:06:54.554Z,31.98
2022-12-20T02:08:01.236Z,30.02
2022-12-20T02:09:08.702Z,31.13
2022-12-20T02:10:16.655Z,30.38
2022-12-20T02:12:03.989Z,29.26
2022-12-20T02:13:35.406Z,31.32
2022-12-20T02:15:09.820Z,29.62
2022-12-20T02:16:25.230Z,30.19
2022-12-20T02:17:53.392Z,29.50
2022-12-20T02:19:18.008Z,28.64
2022-12-20T02:21:01.319Z,29.11
2022-12-20T02:22:26.531Z,31.03
2022-12-20T02:24:04.864Z,31.08
2022-12-20T02:25:49.562Z,29.59
2022-12-20T02:27:46.509Z,28.86
2022-12-20T02:29:23.896Z,28.25
2022-12-20T02:30:47.464Z,27.63
2022-12-20T02:32:05.369Z,27.95
2022-12-20T02:33:17.524Z,27.86
2022-12-20T02:34:26.302Z,29.26
2022-12-20T02:35:36.322Z,28.38
2022-12-20T02:36:40.255Z,29.77
2022-12-20T02:38:00.830Z,29.76
2022-12-20T02:39:05.132Z,27.07
2022-12-20T02:40:13.570Z,28.45
2022-12-20T02:41:25.918Z,27.78
2022-12-20T02:42:36.955Z,27.48
2022-12-20T02:44:01.405Z,27.81
2022-12-20T02:45:18.384Z,27.74
2022-12-20T02:46:31.008Z,28.47
2022-12-20T02:47:43.104Z,29.12
2022-12-20T02:48:54.929Z,27.92
2022-12-20T02:49:59.072Z,29.12
2022-12-20T02:51:11.736Z,27.87
2022-12-20T02:52:18.333Z,28.30
2022-12-20T02:53:26.627Z,28.50
2022-12-20T02:54:31.233Z,28.62
2022-12-20T02:55:51.097Z,29.55
2022-12-20T02:57:06.679Z,28.82
2022-12-20T02:58:29.504Z,29.97
2022-12-20T02:59:45.576Z,29.00
2022-12-20T03:00:59.701Z,28.96
2022-12-20T03:02:09.034Z,28.99
2022-12-20T03:03:25.231Z,30.11
2022-12-20T03:04:38.161Z,30.69
2022-12-20T03:05:48.090Z,30.51
2022-12-20T03:07:05.143Z,30.05
2022-12-20T03:08:09.532Z,28.79
2022-12-20T03:09:15.431Z,29.71
2022-12-20T03:10:20.677Z,29.99
2022-12-20T03:11:26.823Z,31.95
2022-12-20T03:12:30.251Z,29.17
2022-12-20T03:13:37.022Z,29.21
2022-12-20T03:14:44.750Z,29.83
2022-12-20T03:15:53.086Z,29.25
2022-12-20T03:16:56.691Z,27.74
2022-12-20T03:18:05.457Z,29.03
2022-12-20T03:19:09.659Z,28.78
2022-12-20T03:20:16.322Z,27.32
2022-12-20T03:21:19.934Z,27.67
2022-12-20T03:22:26.280Z,29.01
2022-12-20T03:23:29.684Z,29.41
2022-12-20T03:24:36.845Z,30.20
2022-12-20T03:25:44.905Z,31.73
2022-12-20T03:26:57.259Z,31.33
2022-12-20T03:28:01.536Z,36.57
2022-12-20T03:29:08.557Z,35.36
2022-12-20T03:30:15.330Z,33.01
2022-12-20T03:31:21.503Z,33.78
2022-12-20T03:32:28.539Z,34.57
2022-12-20T03:33:37.491Z,33.26
2022-12-20T03:34:43.472Z,30.91
2022-12-20T03:35:52.186Z,31.08
2022-12-20T03:36:55.607Z,32.41
2022-12-20T03:38:01.543Z,33.57
2022-12-20T03:39:05.577Z,32.55
2022-12-20T03:40:17.360Z,34.07
2022-12-20T03:41:23.999Z,34.95
2022-12-20T03:42:32.096Z,35.49
2022-12-20T03:43:35.530Z,37.29
2022-12-20T03:44:41.798Z,36.75
2022-12-20T03:45:46.043Z,37.09
2022-12-20T03:46:52.738Z,35.91
2022-12-20T03:47:57.430Z,36.57
2022-12-20T03:49:08.900Z,35.24
2022-12-20T03:50:20.244Z,35.87
2022-12-20T03:51:26.243Z,36.11
2022-12-20T03:52:30.378Z,35.46
2022-12-20T03:53:36.702Z,35.67
2022-12-20T03:54:40.326Z,36.32
2022-12-20T03:55:53.103Z,36.34
2022-12-20T03:56:56.576Z,34.61
2022-12-20T03:58:03.457Z,34.97
2022-12-20T03:59:12.449Z,34.10
2022-12-20T04:00:20.869Z,34.98
2022-12-20T04:01:36.805Z,36.01
2022-12-20T04:02:40.816Z,35.19
2022-12-20T04:03:49.593Z,38.49
2022-12-20T04:04:58.330Z,37.80
2022-12-20T04:06:02.092Z,42.33
2022-12-20T04:07:08.026Z,42.05
2022-12-20T04:08:13.459Z,39.74
2022-12-20T04:09:20.309Z,42.19
2022-12-20T04:10:28.771Z,38.88
2022-12-20T04:11:36.175Z,38.66
2022-12-20T04:12:44.193Z,39.14
2022-12-20T04:13:55.966Z,39.13
2022-12-20T04:15:00.638Z,39.29
2022-12-20T04:16:08.949Z,43.30
2022-12-20T04:17:12.273Z,42.62
2022-12-20T04:18:20.201Z,42.27
2022-12-20T04:19:27.019Z,43.55
2022-12-20T04:20:33.988Z,41.24
2022-12-20T04:22:02.670Z,38.02
2022-12-20T04:23:16.398Z,39.80
2022-12-20T04:24:23.687Z,38.88
2022-12-20T04:25:47.061Z,37.82
2022-12-20T04:26:55.345Z,38.33
2022-12-20T04:27:58.729Z,37.00
2022-12-20T04:29:04.929Z,38.19
2022-12-20T04:30:11.962Z,40.68
2022-12-20T04:31:23.779Z,40.75
2022-12-20T04:32:28.845Z,39.61
2022-12-20T04:33:35.609Z,40.18
2022-12-20T04:34:39.016Z,36.72
2022-12-20T04:35:47.697Z,36.28
2022-12-20T04:36:51.921Z,37.71
2022-12-20T04:38:07.926Z,37.24
2022-12-20T04:39:11.231Z,38.21
2022-12-20T04:40:27.721Z,38.98
2022-12-20T04:41:36.804Z,38.78
2022-12-20T04:42:46.637Z,36.56
2022-12-20T04:43:57.610Z,37.65
2022-12-20T04:45:08.596Z,40.89
2022-12-20T04:46:14.552Z,41.39
2022-12-20T04:47:17.907Z,40.31
2022-12-20T04:49:48.385Z,38.75
2022-12-20T04:50:59.285Z,42.66
2022-12-20T04:52:18.603Z,43.15
2022-12-20T04:53:39.262Z,43.38
2022-12-20T04:54:42.820Z,46.12
2022-12-20T04:55:56.021Z,40.06
2022-12-20T04:57:00.384Z,42.72
2022-12-20T04:58:07.892Z,46.24
2022-12-20T04:59:17.004Z,41.01
2022-12-20T05:00:23.373Z,40.80
2022-12-20T05:01:37.888Z,46.71
2022-12-20T05:02:41.959Z,57.51
2022-12-20T05:03:52.312Z,55.93
2022-12-20T05:04:57.128Z,44.69
2022-12-20T05:06:05.802Z,66.08
2022-12-20T05:07:09.865Z,63.00
2022-12-20T05:08:18.577Z,49.28
2022-12-20T05:09:26.489Z,45.90
2022-12-20T05:10:32.757Z,42.77
2022-12-20T05:11:41.047Z,45.80
2022-12-20T05:12:45.869Z,51.82
2022-12-20T05:14:00.123Z,45.33
2022-12-20T05:15:03.565Z,41.88
2022-12-20T05:16:10.987Z,40.95
2022-12-20T05:17:15.012Z,36.75
2022-12-20T05:18:21.103Z,42.63
2022-12-20T05:19:32.033Z,40.79
2022-12-20T05:20:39.355Z,38.83
2022-12-20T05:22:12.785Z,40.16
2022-12-20T05:23:34.921Z,44.46
2022-12-20T05:25:03.263Z,43.37
2022-12-20T05:26:24.824Z,40.44
2022-12-20T05:27:32.561Z,40.88
2022-12-20T05:28:37.636Z,40.24
2022-12-20T05:29:43.823Z,45.74
2022-12-20T05:30:47.274Z,48.85
2022-12-20T05:31:55.928Z,41.45
2022-12-20T05:33:00.613Z,46.59
2022-12-20T05:34:07.492Z,46.61
2022-12-20T05:35:13.239Z,40.88
2022-12-20T05:36:19.606Z,43.40
2022-12-20T05:37:27.397Z,42.78
2022-12-20T05:38:36.745Z,46.76
2022-12-20T05:39:46.865Z,45.88
2022-12-20T05:40:58.792Z,44.05
2022-12-20T05:42:02.810Z,44.97
2022-12-20T05:43:09.279Z,49.73
2022-12-20T05:44:22.483Z,45.27
2022-12-20T05:45:29.188Z,49.05
2022-12-20T05:46:41.010Z,46.94
2022-12-20T05:47:49.381Z,48.85
2022-12-20T05:48:55.702Z,48.32
2022-12-20T05:50:01.334Z,50.81
2022-12-20T05:51:12.526Z,52.15
2022-12-20T05:52:38.705Z,59.21
2022-12-20T05:53:45.563Z,62.65
2022-12-20T05:54:50.528Z,63.30
2022-12-20T05:55:58.897Z,54.36
2022-12-20T05:57:06.226Z,52.05
2022-12-20T05:58:16.502Z,52.27
2022-12-20T05:59:31.460Z,74.24
2022-12-20T06:00:34.910Z,66.54
2022-12-20T06:01:41.944Z,69.94
2022-12-20T06:02:46.010Z,54.16
2022-12-20T06:03:53.022Z,58.92
2022-12-20T06:04:59.334Z,60.51
2022-12-20T06:06:10.118Z,63.12
2022-12-20T06:07:19.740Z,60.83
2022-12-20T06:08:32.053Z,61.67
2022-12-20T06:09:37.556Z,71.88
2022-12-20T06:10:47.159Z,75.48
2022-12-20T06:11:51.713Z,65.29
2022-12-20T06:12:58.545Z,51.67
2022-12-20T06:14:02.705Z,53.73
2022-12-20T06:15:11.088Z,50.94
2022-12-20T06:16:20.903Z,60.02
2022-12-20T06:17:24.482Z,51.98
2022-12-20T06:18:32.388Z,48.17
2022-12-20T06:19:40.344Z,43.58
2022-12-20T06:20:53.857Z,48.52
2022-12-20T06:22:01.387Z,53.72
2022-12-20T06:23:27.677Z,51.75
2022-12-20T06:24:48.553Z,46.12
2022-12-20T06:25:58.256Z,50.20
2022-12-20T06:27:07.255Z,47.24
2022-12-20T06:28:13.410Z,50.75
2022-12-20T06:29:17.776Z,49.29
2022-12-20T06:30:34.086Z,50.47
2022-12-20T06:31:58.124Z,48.42
2022-12-20T06:33:06.041Z,48.69
2022-12-20T06:34:09.597Z,50.88
2022-12-20T06:35:20.418Z,50.35
2022-12-20T06:36:28.861Z,46.09
2022-12-20T06:37:32.563Z,40.47
2022-12-20T06:38:38.734Z,44.48
2022-12-20T06:39:44.909Z,45.33
2022-12-20T06:40:50.927Z,46.92
2022-12-20T06:41:55.347Z,44.31
2022-12-20T06:43:01.392Z,43.36
2022-12-20T06:44:05.312Z,41.53
2022-12-20T06:45:13.427Z,40.17
2022-12-20T06:46:17.517Z,38.44
2022-12-20T06:47:25.376Z,39.63
2022-12-20T06:48:28.801Z,40.44
2022-12-20T06:49:35.331Z,43.48
2022-12-20T06:50:52.094Z,43.43
2022-12-20T06:52:01.907Z,43.50
2022-12-20T06:53:20.136Z,46.52
2022-12-20T06:54:23.531Z,45.99
2022-12-20T06:55:32.615Z,43.87
2022-12-20T06:56:41.091Z,42.18
2022-12-20T06:57:49.270Z,40.46
2022-12-20T06:58:53.510Z,38.08
2022-12-20T06:59:59.589Z,39.26
2022-12-20T07:01:03.259Z,41.26
2022-12-20T07:02:09.698Z,39.76
2022-12-20T07:03:16.774Z,51.49
2022-12-20T07:04:21.545Z,52.19
2022-12-20T07:05:27.756Z,54.29
2022-12-20T07:06:31.232Z,54.85
2022-12-20T07:07:44.572Z,56.23
2022-12-20T07:08:51.225Z,50.99
2022-12-20T07:09:57.951Z,49.51
2022-12-20T07:11:12.163Z,44.49
2022-12-20T07:12:15.473Z,43.98
2022-12-20T07:13:21.770Z,46.05
2022-12-20T07:14:27.836Z,44.33
2022-12-20T07:15:32.620Z,46.86
2022-12-20T07:16:39.124Z,43.96
2022-12-20T07:17:44.980Z,44.59
2022-12-20T07:18:50.904Z,43.23
2022-12-20T07:19:56.931Z,45.11
2022-12-20T07:21:02.656Z,45.17
2022-12-20T07:22:09.239Z,45.75
2022-12-20T07:23:12.622Z,47.48
2022-12-20T07:24:19.166Z,41.76
2022-12-20T07:25:22.846Z,43.09
2022-12-20T07:26:32.273Z,43.29
2022-12-20T07:27:35.983Z,43.47
2022-12-20T07:28:43.305Z,47.58
2022-12-20T07:29:49.347Z,53.76
2022-12-20T07:30:53.108Z,51.57
2022-12-20T07:32:00.025Z,47.30
2022-12-20T07:33:03.379Z,40.81
2022-12-20T07:34:09.463Z,42.55
2022-12-20T07:35:17.279Z,43.66
2022-12-20T07:36:23.419Z,46.73
2022-12-20T07:37:32.159Z,46.95
2022-12-20T07:38:38.543Z,52.18
2022-12-20T07:39:44.743Z,46.66
2022-12-20T07:40:48.165Z,47.57
2022-12-20T07:42:00.177Z,53.72
2022-12-20T07:43:04.474Z,55.62
2022-12-20T07:44:10.385Z,53.93
2022-12-20T07:45:13.680Z,52.75
2022-12-20T07:46:21.770Z,52.60
2022-12-20T07:47:27.889Z,54.22
2022-12-20T07:48:36.344Z,49.56
2022-12-20T07:49:43.283Z,50.09
2022-12-20T07:50:47.233Z,52.94
2022-12-20T07:52:01.003Z,49.53
2022-12-20T07:53:12.564Z,49.34
2022-12-20T07:54:27.392Z,49.24
2022-12-20T07:55:32.534Z,46.50
2022-12-20T07:56:46.070Z,45.43
2022-12-20T07:58:05.132Z,54.44
2022-12-20T07:59:15.628Z,52.31
2022-12-20T08:00:23.230Z,50.89
2022-12-20T08:01:32.174Z,49.66
2022-12-20T08:02:47.566Z,46.73
2022-12-20T08:04:03.616Z,41.88
2022-12-20T08:05:14.009Z,46.23
2022-12-20T08:06:23.037Z,43.27
2022-12-20T08:07:33.270Z,44.65
2022-12-20T08:08:46.338Z,42.16
2022-12-20T08:09:52.563Z,42.10
2022-12-20T08:10:59.437Z,46.41
2022-12-20T08:12:07.516Z,47.63
2022-12-20T08:13:14.409Z,49.85
2022-12-20T08:14:24.791Z,48.27
2022-12-20T08:15:30.419Z,49.59
2022-12-20T08:16:36.427Z,57.54
2022-12-20T08:17:40.504Z,51.42
2022-12-20T08:18:46.516Z,43.18
2022-12-20T08:19:52.676Z,42.63
2022-12-20T08:20:59.440Z,38.57
2022-12-20T08:22:05.556Z,43.77
2022-12-20T08:23:12.260Z,45.28
2022-12-20T08:24:18.154Z,43.18
2022-12-20T08:25:25.134Z,45.56
2022-12-20T08:26:31.188Z,54.54
2022-12-20T08:27:37.426Z,47.47
2022-12-20T08:28:47.367Z,43.47
2022-12-20T08:29:50.826Z,42.36
2022-12-20T08:30:56.898Z,39.98
2022-12-20T08:32:02.976Z,41.99
2022-12-20T08:33:09.103Z,44.77
2022-12-20T08:34:15.933Z,47.86
2022-12-20T08:35:21.994Z,46.29
2022-12-20T08:36:25.412Z,49.65
2022-12-20T08:37:31.461Z,44.61
2022-12-20T08:38:37.919Z,48.54
2022-12-20T08:39:44.626Z,46.14
2022-12-20T08:40:48.055Z,46.12
2022-12-20T08:41:54.046Z,46.87
2022-12-20T08:42:58.863Z,45.96
2022-12-20T08:44:07.846Z,46.33
2022-12-20T08:45:15.541Z,48.26
2022-12-20T08:46:21.610Z,48.76
2022-12-20T08:47:24.974Z,50.77
2022-12-20T08:48:32.701Z,47.56
2022-12-20T08:49:43.972Z,45.80
2022-12-20T08:51:01.406Z,44.25
2022-12-20T08:52:07.656Z,45.87
2022-12-20T08:53:13.602Z,42.70
2022-12-20T08:54:19.798Z,40.04
2022-12-20T08:55:29.414Z,44.74
2022-12-20T08:56:36.508Z,41.89
2022-12-20T08:57:42.404Z,40.10
2022-12-20T08:58:46.655Z,42.23
2022-12-20T08:59:55.211Z,43.45
2022-12-20T09:01:06.670Z,42.45
2022-12-20T09:02:13.948Z,42.25
2022-12-20T09:03:20.077Z,46.02
2022-12-20T09:04:26.055Z,42.67
2022-12-20T09:05:32.066Z,45.33
2022-12-20T09:06:38.813Z,47.20
2022-12-20T09:07:45.597Z,46.43
2022-12-20T09:08:49.902Z,41.02
2022-12-20T09:09:55.895Z,46.35
2022-12-20T09:11:09.537Z,42.30
2022-12-20T09:12:13.109Z,51.42
2022-12-20T09:13:20.173Z,52.89
2022-12-20T09:14:26.128Z,48.30
2022-12-20T09:15:36.595Z,44.93
2022-12-20T09:16:42.602Z,44.62
2022-12-20T09:17:48.526Z,43.02
2022-12-20T09:19:00.742Z,42.20
2022-12-20T09:20:12.065Z,41.86
2022-12-20T09:21:22.019Z,40.78
2022-12-20T09:22:28.104Z,41.40
2022-12-20T09:23:33.091Z,44.45
2022-12-20T09:24:41.519Z,43.63
2022-12-20T09:25:50.226Z,41.90
2022-12-20T09:27:00.049Z,39.16
2022-12-20T09:28:06.178Z,40.36
2022-12-20T09:29:12.320Z,40.53
2022-12-20T09:30:19.740Z,41.39
2022-12-20T09:31:30.012Z,42.37
2022-12-20T09:32:33.676Z,41.13
2022-12-20T09:33:39.716Z,42.27
2022-12-20T09:34:43.203Z,43.06
2022-12-20T09:35:50.716Z,41.83
2022-12-20T09:36:54.191Z,43.08
2022-12-20T09:38:01.497Z,43.40
2022-12-20T09:39:07.798Z,41.41
2022-12-20T09:40:21.291Z,43.68
2022-12-20T09:41:37.450Z,41.58
2022-12-20T09:42:44.239Z,42.12
2022-12-20T09:43:48.148Z,41.35
2022-12-20T09:44:54.657Z,40.76
2022-12-20T09:46:04.960Z,42.14
2022-12-20T09:47:23.747Z,43.72
2022-12-20T09:48:36.802Z,40.36
2022-12-20T09:49:49.054Z,43.02
2022-12-20T09:51:15.830Z,48.38
2022-12-20T09:52:50.743Z,53.21
2022-12-20T09:54:18.517Z,51.66
2022-12-20T09:55:37.874Z,52.03
2022-12-20T09:57:04.580Z,48.57
2022-12-20T09:58:45.969Z,50.37
2022-12-20T09:59:52.210Z,48.89
2022-12-20T10:00:58.404Z,47.36
2022-12-20T10:02:19.487Z,43.39
2022-12-20T10:03:39.015Z,40.92
2022-12-20T10:04:45.539Z,40.29
2022-12-20T10:05:57.767Z,37.03
2022-12-20T10:07:39.253Z,38.17
2022-12-20T10:08:56.439Z,36.40
2022-12-20T10:10:35.766Z,33.45
2022-12-20T10:12:07.208Z,34.63
2022-12-20T10:13:49.657Z,36.29
2022-12-20T10:15:21.865Z,34.53
2022-12-20T10:16:48.021Z,37.99
2022-12-20T10:18:19.847Z,36.61
2022-12-20T10:20:08.742Z,36.86
2022-12-20T10:21:35.816Z,40.98
2022-12-20T10:22:55.643Z,38.54
2022-12-20T10:24:07.317Z,37.66
2022-12-20T10:25:23.513Z,36.38
2022-12-20T10:26:31.679Z,35.42
2022-12-20T10:27:39.001Z,36.34
2022-12-20T10:28:50.753Z,35.61
2022-12-20T10:30:00.913Z,38.69
2022-12-20T10:31:14.316Z,36.52
2022-12-20T10:32:29.333Z,40.65
2022-12-20T10:33:33.924Z,39.06
2022-12-20T10:34:48.473Z,38.80
2022-12-20T10:35:52.580Z,37.70
2022-12-20T10:37:16.898Z,40.25
2022-12-20T10:38:23.070Z,44.33
2022-12-20T10:39:46.202Z,44.65
2022-12-20T10:41:23.035Z,38.98
2022-12-20T10:42:43.496Z,38.05
2022-12-20T10:43:57.753Z,37.72
2022-12-20T10:45:02.804Z,36.41
2022-12-20T10:46:12.917Z,36.37
2022-12-20T10:47:40.930Z,36.22
2022-12-20T10:48:51.933Z,37.80
2022-12-20T10:50:18.174Z,38.44
2022-12-20T10:51:26.057Z,41.96
2022-12-20T10:52:29.736Z,39.62
2022-12-20T10:53:36.076Z,38.75
2022-12-20T10:54:46.528Z,37.18
2022-12-20T10:55:52.279Z,37.10
2022-12-20T10:57:02.402Z,34.45
2022-12-20T10:58:18.512Z,36.33
2022-12-20T10:59:39.888Z,40.38
2022-12-20T11:00:47.532Z,39.47
2022-12-20T11:01:52.263Z,40.90
2022-12-20T11:03:13.499Z,39.12
2022-12-20T11:04:32.568Z,36.17
2022-12-20T11:05:39.010Z,38.82
2022-12-20T11:06:48.658Z,37.00
2022-12-20T11:09:32.715Z,38.15
2022-12-20T11:10:36.545Z,37.32
2022-12-20T11:11:42.567Z,38.23
2022-12-20T11:12:56.938Z,38.74
2022-12-20T11:14:18.892Z,39.70
2022-12-20T11:15:34.176Z,40.89
2022-12-20T11:16:44.712Z,39.99
2022-12-20T11:17:53.761Z,40.22
2022-12-20T11:19:25.375Z,39.55
2022-12-20T11:20:48.490Z,39.73
2022-12-20T11:22:12.712Z,39.58
2022-12-20T11:23:38.864Z,39.70
2022-12-20T11:25:02.768Z,39.26
2022-12-20T11:26:39.430Z,40.46
2022-12-20T11:28:09.351Z,37.65
2022-12-20T11:29:50.723Z,39.05
2022-12-20T11:31:18.887Z,39.28
2022-12-20T11:32:53.324Z,38.81
2022-12-20T11:34:20.040Z,40.32
2022-12-20T11:35:42.078Z,40.59
2022-12-20T11:37:20.692Z,43.31
2022-12-20T11:38:45.670Z,48.54
2022-12-20T11:40:24.840Z,50.54
2022-12-20T11:41:47.813Z,50.08
2022-12-20T11:43:17.462Z,49.02
2022-12-20T11:44:55.357Z,43.05
2022-12-20T11:46:31.045Z,48.10
2022-12-20T11:48:10.071Z,47.99
2022-12-20T11:50:03.153Z,49.22
2022-12-20T11:51:27.169Z,48.45
2022-12-20T11:52:49.738Z,47.47
2022-12-20T11:54:13.791Z,55.55
2022-12-20T11:55:27.901Z,50.04
2022-12-20T11:56:44.770Z,45.28
2022-12-20T11:58:21.074Z,45.40
2022-12-20T11:59:40.676Z,43.44
2022-12-20T12:00:59.276Z,42.72
2022-12-20T12:02:16.167Z,43.95
2022-12-20T12:03:30.856Z,47.23
2022-12-20T12:04:47.072Z,49.28
2022-12-20T12:05:59.205Z,49.92
2022-12-20T12:07:16.641Z,43.46
2022-12-20T12:08:34.530Z,48.50
2022-12-20T12:09:51.278Z,47.76
2022-12-20T12:11:25.719Z,43.02
2022-12-20T12:12:45.669Z,43.55
2022-12-20T12:13:51.476Z,41.97
2022-12-20T12:15:14.317Z,42.28
2022-12-20T12:16:30.882Z,48.14
2022-12-20T12:17:50.361Z,51.30
2022-12-20T12:18:56.948Z,45.32
2022-12-20T12:20:29.925Z,43.60
2022-12-20T12:21:45.836Z,54.03
2022-12-20T12:23:01.713Z,52.08
2022-12-20T12:24:26.983Z,47.65
2022-12-20T12:25:30.436Z,52.47
2022-12-20T12:26:41.212Z,61.63
2022-12-20T12:27:48.724Z,61.90
2022-12-20T12:28:57.274Z,64.86
2022-12-20T12:30:03.447Z,68.76
2022-12-20T12:31:21.676Z,63.02
2022-12-20T12:32:44.134Z,51.52
2022-12-20T12:34:08.807Z,48.10
2022-12-20T12:35:56.292Z,52.57
2022-12-20T12:37:51.160Z,56.51
2022-12-20T12:39:49.530Z,55.24
2022-12-20T12:41:43.277Z,45.64
2022-12-20T12:43:39.083Z,52.03
2022-12-20T12:44:57.748Z,50.29
2022-12-20T12:46:14.675Z,57.37
2022-12-20T12:47:39.900Z,52.89
2022-12-20T12:48:57.698Z,51.24
2022-12-20T12:50:08.246Z,45.21
2022-12-20T12:51:22.227Z,44.74
2022-12-20T12:52:46.603Z,41.81
2022-12-20T12:53:56.934Z,42.30
2022-12-20T12:55:03.194Z,41.85
2022-12-20T12:56:45.475Z,42.30
2022-12-20T12:57:57.928Z,43.11
2022-12-20T12:59:54.729Z,43.48
2022-12-20T13:01:05.205Z,42.49
2022-12-20T13:02:37.546Z,43.58
2022-12-20T13:04:09.731Z,44.04
2022-12-20T13:05:38.675Z,45.24
2022-12-20T13:07:00.340Z,44.39
2022-12-20T13:08:17.712Z,43.24
2022-12-20T13:09:38.144Z,44.49
2022-12-20T13:11:06.199Z,44.57
2022-12-20T13:13:02.879Z,44.23
2022-12-20T13:14:30.895Z,49.89
2022-12-20T13:16:16.908Z,50.75
2022-12-20T13:17:53.073Z,47.82
2022-12-20T13:19:16.611Z,52.52
2022-12-20T13:20:24.541Z,53.97
2022-12-20T13:21:40.463Z,57.18
2022-12-20T13:23:17.987Z,55.95
2022-12-20T13:24:55.235Z,62.98
2022-12-20T13:25:58.887Z,61.16
2022-12-20T13:27:24.636Z,48.32
2022-12-20T13:28:49.631Z,44.71
2022-12-20T13:30:19.083Z,46.15
2022-12-20T13:31:36.972Z,50.32
2022-12-20T13:33:15.832Z,55.54
2022-12-20T13:34:41.553Z,52.64
2022-12-20T13:36:19.684Z,47.48
2022-12-20T13:37:57.361Z,45.19
2022-12-20T13:39:33.650Z,46.75
2022-12-20T13:40:45.616Z,50.54
2022-12-20T13:42:18.573Z,47.36
2022-12-20T13:43:37.225Z,47.14
2022-12-20T13:44:48.790Z,52.50
2022-12-20T13:46:06.242Z,55.66
2022-12-20T13:47:37.680Z,52.58
2022-12-20T13:48:54.207Z,57.96
2022-12-20T13:50:05.808Z,53.63
2022-12-20T13:51:10.683Z,53.37
2022-12-20T13:52:33.158Z,53.26
2022-12-20T13:53:42.436Z,50.44
2022-12-20T13:54:50.790Z,51.73
2022-12-20T13:55:59.236Z,51.79
2022-12-20T13:57:06.701Z,60.70
2022-12-20T13:58:25.166Z,57.18
2022-12-20T13:59:33.837Z,52.36
2022-12-20T14:00:41.520Z,48.99
2022-12-20T14:01:57.062Z,48.98
2022-12-20T14:03:03.695Z,52.16
2022-12-20T14:04:10.959Z,50.76
2022-12-20T14:05:26.728Z,49.96
2022-12-20T14:06:33.186Z,52.62
2022-12-20T14:07:41.992Z,50.04
2022-12-20T14:08:52.187Z,48.54
2022-12-20T14:10:02.968Z,53.59
2022-12-20T14:11:16.047Z,59.54
2022-12-20T14:12:27.380Z,66.40
2022-12-20T14:13:39.678Z,61.09
2022-12-20T14:14:49.999Z,61.28
2022-12-20T14:15:58.646Z,60.50
2022-12-20T14:17:19.848Z,56.06
2022-12-20T14:18:29.049Z,59.79
2022-12-20T14:19:33.351Z,57.28
2022-12-20T14:20:42.408Z,55.64
2022-12-20T14:21:50.594Z,51.12
2022-12-20T14:23:06.439Z,54.88
2022-12-20T14:24:21.701Z,51.93
2022-12-20T14:25:38.706Z,52.82
2022-12-20T14:26:48.649Z,54.19
2022-12-20T14:27:52.295Z,59.06
2022-12-20T14:29:07.981Z,58.85
2022-12-20T14:30:35.004Z,52.98
2022-12-20T14:31:46.666Z,55.97
2022-12-20T14:32:50.967Z,52.76
2022-12-20T14:34:10.711Z,48.62
2022-12-20T14:35:21.564Z,50.47
2022-12-20T14:36:27.611Z,51.45
2022-12-20T14:37:36.474Z,49.27
2022-12-20T14:38:45.382Z,50.06
2022-12-20T14:40:19.586Z,52.68
2022-12-20T14:41:39.277Z,57.04
2022-12-20T14:42:46.644Z,56.48
2022-12-20T14:44:07.132Z,53.26
2022-12-20T14:45:21.162Z,55.12
2022-12-20T14:46:27.520Z,55.72
2022-12-20T14:47:34.533Z,54.86
2022-12-20T14:48:41.502Z,59.92
2022-12-20T14:49:55.463Z,57.13
2022-12-20T14:51:01.604Z,58.10
2022-12-20T14:52:20.928Z,58.11
2022-12-20T14:53:30.694Z,58.81
2022-12-20T14:56:26.433Z,55.79
2022-12-20T14:57:48.999Z,55.08
2022-12-20T14:59:17.532Z,54.99
2022-12-20T15:00:28.684Z,59.71
2022-12-20T15:01:35.837Z,56.34
2022-12-20T15:02:55.474Z,57.80
2022-12-20T15:04:01.010Z,59.14
2022-12-20T15:05:27.658Z,58.74
2022-12-20T15:06:46.045Z,63.08
2022-12-20T15:07:49.565Z,58.56
2022-12-20T15:08:55.545Z,58.46
2022-12-20T15:10:01.941Z,61.81
2022-12-20T15:11:24.588Z,67.56
2022-12-20T15:12:32.652Z,67.19
2022-12-20T15:13:45.736Z,58.42
2022-12-20T15:14:54.862Z,56.13
2022-12-20T15:16:04.817Z,54.66
2022-12-20T15:17:15.927Z,58.63
2022-12-20T15:18:24.832Z,54.89
2022-12-20T15:19:31.630Z,52.59
2022-12-20T15:20:35.523Z,54.12
2022-12-20T15:21:45.986Z,58.30
2022-12-20T15:22:49.462Z,48.84
2022-12-20T15:24:00.123Z,48.35
2022-12-20T15:25:12.194Z,49.98
2022-12-20T15:26:20.945Z,54.20
2022-12-20T15:27:27.382Z,51.12
2022-12-20T15:28:33.502Z,49.30
2022-12-20T15:29:40.598Z,45.63
2022-12-20T15:30:51.309Z,45.13
2022-12-20T15:32:10.510Z,56.80
2022-12-20T15:33:23.065Z,53.13